Mulvane, Kansas
Current Conditions -  °F | °C
As of 9:58 PM on Sunday 19 Oct 2014 (Local Time) from KIAB Reporting Station
Clear Clear  
Wind Chill: 61°   Ceiling: Unl
Heat Index: 61°   Visibility: 10mi
Dew Point: 56°   Wind: 7mph
Humidity: 83%   Direction: 170°S
Pressure: 30.02"   Gusts: NA
Location:  37.47°N, 97.24°W
Report Text: KIAB 200258Z AUTO 17006KT 10SM CLR 16/13 A3002 RMK AO2 SLP165 T01610133 50001
Loading
Personal Weather Stations






























Interactive Weather Map
Tropical Storm Tracking
New forecast layout! Learn more

10-Day Weather Forecast

Advertisements
Track Severe Weather on mobile